createdAt,value
2023-05-16T00:00:54.467Z,95.73
2023-05-16T00:03:22.278Z,97.33
2023-05-16T00:05:50.632Z,95.38
2023-05-16T00:08:18.043Z,94.42
2023-05-16T00:10:46.789Z,96.57
2023-05-16T00:13:14.486Z,95.04
2023-05-16T00:15:43.902Z,96.68
2023-05-16T00:18:14.776Z,96.33
2023-05-16T00:20:42.300Z,98.77
2023-05-16T00:23:09.737Z,96.60
2023-05-16T00:25:37.453Z,96.79
2023-05-16T00:28:06.336Z,94.41
2023-05-16T00:30:34.061Z,95.31
2023-05-16T00:33:02.017Z,95.58
2023-05-16T00:35:29.543Z,96.12
2023-05-16T00:37:57.018Z,96.83
2023-05-16T00:40:24.521Z,96.97
2023-05-16T00:42:51.981Z,96.69
2023-05-16T00:45:20.725Z,99.65
2023-05-16T00:47:48.622Z,98.67
2023-05-16T00:50:16.151Z,97.81
2023-05-16T00:52:43.685Z,99.75
2023-05-16T00:55:11.781Z,98.67
2023-05-16T00:57:39.352Z,97.43
2023-05-16T01:00:09.408Z,97.60
2023-05-16T01:02:39.139Z,97.48
2023-05-16T01:05:07.558Z,97.44
2023-05-16T01:07:35.346Z,97.43
2023-05-16T01:10:03.976Z,97.87
2023-05-16T01:12:39.450Z,99.25
2023-05-16T01:15:10.692Z,99.13
2023-05-16T01:17:50.711Z,99.27
2023-05-16T01:20:30.042Z,99.07
2023-05-16T01:23:06.699Z,99.46
2023-05-16T01:25:58.032Z,100.00
2023-05-16T01:28:28.049Z,99.90
2023-05-16T01:30:55.511Z,100.00
2023-05-16T01:33:22.881Z,100.00
2023-05-16T01:35:56.739Z,100.00
2023-05-16T01:38:27.501Z,99.51
2023-05-16T01:40:59.202Z,99.34
2023-05-16T01:43:36.427Z,98.70
2023-05-16T01:46:12.963Z,97.12
2023-05-16T01:48:45.795Z,98.51
2023-05-16T01:51:14.082Z,98.83
2023-05-16T01:53:42.381Z,97.75
2023-05-16T01:56:16.613Z,96.42
2023-05-16T01:58:47.095Z,95.27
2023-05-16T02:01:14.542Z,95.90
2023-05-16T02:03:42.011Z,95.36
2023-05-16T02:06:09.467Z,94.97
2023-05-16T02:08:36.881Z,96.50
2023-05-16T02:11:04.270Z,95.35
2023-05-16T02:13:31.792Z,96.02
2023-05-16T02:16:00.565Z,96.83
2023-05-16T02:18:28.273Z,96.13
2023-05-16T02:20:55.649Z,94.61
2023-05-16T02:23:23.543Z,95.12
2023-05-16T02:25:50.936Z,95.54
2023-05-16T02:28:18.333Z,94.74
2023-05-16T02:30:45.786Z,94.90
2023-05-16T02:33:14.475Z,95.98
2023-05-16T02:35:41.853Z,96.56
2023-05-16T02:38:09.573Z,95.55
2023-05-16T02:40:36.943Z,95.37
2023-05-16T02:43:04.335Z,93.87
2023-05-16T02:45:32.196Z,93.47
2023-05-16T02:47:59.620Z,93.54
2023-05-16T02:50:28.460Z,94.11
2023-05-16T02:52:55.938Z,94.57
2023-05-16T02:55:23.287Z,93.24
2023-05-16T02:57:50.985Z,93.58
2023-05-16T03:00:19.640Z,94.52
2023-05-16T03:02:47.134Z,95.44
2023-05-16T03:05:14.604Z,94.76
2023-05-16T03:07:43.401Z,98.68
2023-05-16T03:10:11.227Z,96.13
2023-05-16T03:12:38.607Z,96.47
2023-05-16T03:15:09.180Z,94.80
2023-05-16T03:17:36.667Z,94.52
2023-05-16T03:20:05.117Z,93.42
2023-05-16T03:22:32.476Z,95.19
2023-05-16T03:25:01.193Z,92.44
2023-05-16T03:27:28.683Z,93.71
2023-05-16T03:29:56.079Z,95.04
2023-05-16T03:32:23.484Z,92.66
2023-05-16T03:34:50.844Z,92.98
2023-05-16T03:37:18.344Z,92.88
2023-05-16T03:39:45.739Z,91.90
2023-05-16T03:42:14.461Z,91.68
2023-05-16T03:44:41.861Z,92.12
2023-05-16T03:47:09.378Z,91.50
2023-05-16T03:49:37.081Z,90.59
2023-05-16T03:52:04.864Z,91.43
2023-05-16T03:54:32.349Z,91.15
2023-05-16T03:56:59.725Z,90.31
2023-05-16T03:59:28.440Z,91.74
2023-05-16T04:01:55.861Z,90.78
2023-05-16T04:04:23.330Z,90.63
2023-05-16T04:06:50.980Z,90.06
2023-05-16T04:09:18.665Z,88.21
2023-05-16T04:11:46.334Z,87.44
2023-05-16T04:14:13.815Z,88.15
2023-05-16T04:16:42.739Z,86.91
2023-05-16T04:19:10.619Z,86.74
2023-05-16T04:21:38.450Z,88.77
2023-05-16T04:24:06.794Z,89.89
2023-05-16T04:26:34.259Z,88.18
2023-05-16T04:29:01.670Z,91.02
2023-05-16T04:31:29.177Z,89.37
2023-05-16T04:33:58.019Z,88.39
2023-05-16T04:36:25.464Z,88.41
2023-05-16T04:38:52.852Z,90.15
2023-05-16T04:41:20.270Z,89.19
2023-05-16T04:43:47.635Z,89.81
2023-05-16T04:46:15.595Z,90.04
2023-05-16T04:48:43.034Z,89.81
2023-05-16T04:51:12.121Z,88.59
2023-05-16T04:53:39.502Z,88.63
2023-05-16T04:56:07.363Z,88.98
2023-05-16T04:58:34.763Z,87.98
2023-05-16T05:01:02.136Z,89.00
2023-05-16T05:03:29.517Z,88.40
2023-05-16T05:05:56.942Z,88.34
2023-05-16T05:08:26.060Z,88.83
2023-05-16T05:10:53.418Z,89.56
2023-05-16T05:13:20.838Z,92.49
2023-05-16T05:15:50.268Z,90.63
2023-05-16T05:18:17.771Z,91.79
2023-05-16T05:20:45.940Z,88.35
2023-05-16T05:23:13.309Z,87.35
2023-05-16T05:25:42.019Z,85.96
2023-05-16T05:28:09.396Z,86.74
2023-05-16T05:30:36.901Z,89.16
2023-05-16T05:33:04.389Z,89.16
2023-05-16T05:35:31.763Z,88.13
2023-05-16T05:37:59.147Z,88.38
2023-05-16T05:40:26.677Z,88.92
2023-05-16T05:42:55.441Z,87.87
2023-05-16T05:45:22.796Z,88.76
2023-05-16T05:47:50.305Z,87.85
2023-05-16T05:50:18.211Z,87.36
2023-05-16T05:52:45.732Z,90.00
2023-05-16T05:55:13.120Z,89.10
2023-05-16T05:57:40.491Z,88.90
2023-05-16T06:00:11.495Z,89.15
2023-05-16T06:02:39.039Z,87.64
2023-05-16T06:05:07.609Z,87.93
2023-05-16T06:07:35.066Z,87.03
2023-05-16T06:10:05.036Z,89.33
2023-05-16T06:12:33.150Z,88.86
2023-05-16T06:15:00.586Z,89.86
2023-05-16T06:17:29.311Z,90.51
2023-05-16T06:19:56.709Z,88.82
2023-05-16T06:22:24.120Z,89.13
2023-05-16T06:24:51.554Z,89.55
2023-05-16T06:27:18.902Z,89.07
2023-05-16T06:29:46.312Z,87.45
2023-05-16T06:32:13.713Z,88.94
2023-05-16T06:34:42.488Z,87.45
2023-05-16T06:37:09.874Z,83.97
2023-05-16T06:39:37.268Z,83.88
2023-05-16T06:42:05.207Z,86.20
2023-05-16T06:44:32.649Z,86.06
2023-05-16T06:47:00.207Z,84.94
2023-05-16T06:49:27.731Z,86.35
2023-05-16T06:51:56.504Z,87.84
2023-05-16T06:54:23.958Z,87.79
2023-05-16T06:56:51.401Z,87.54
2023-05-16T06:59:18.850Z,88.12
2023-05-16T07:01:46.566Z,84.88
2023-05-16T07:04:14.426Z,87.44
2023-05-16T07:06:41.958Z,88.15
2023-05-16T07:09:10.731Z,88.93
2023-05-16T07:11:38.245Z,89.79
2023-05-16T07:14:05.660Z,88.06
2023-05-16T07:16:33.309Z,87.40
2023-05-16T07:19:01.003Z,87.81
2023-05-16T07:21:29.245Z,88.85
2023-05-16T07:23:56.822Z,86.69
2023-05-16T07:26:25.592Z,87.91
2023-05-16T07:28:53.697Z,85.28
2023-05-16T07:31:21.383Z,85.97
2023-05-16T07:33:49.242Z,84.46
2023-05-16T07:36:17.770Z,83.61
2023-05-16T07:38:46.020Z,87.74
2023-05-16T07:41:13.523Z,88.19
2023-05-16T07:43:42.310Z,86.45
2023-05-16T07:46:09.831Z,84.35
2023-05-16T07:48:37.683Z,86.10
2023-05-16T07:51:05.175Z,87.91
2023-05-16T07:53:32.607Z,87.23
2023-05-16T07:56:00.336Z,89.13
2023-05-16T07:58:27.945Z,90.30
2023-05-16T08:00:56.860Z,90.36
2023-05-16T08:03:24.406Z,91.40
2023-05-16T08:05:52.153Z,90.75
2023-05-16T08:08:19.605Z,93.28
2023-05-16T08:10:47.261Z,92.41
2023-05-16T08:13:14.727Z,90.93
2023-05-16T08:15:42.607Z,90.51
2023-05-16T08:18:16.356Z,91.96
2023-05-16T08:20:44.288Z,93.33
2023-05-16T08:23:11.729Z,91.35
2023-05-16T08:25:39.388Z,91.74
2023-05-16T08:28:06.954Z,89.76
2023-05-16T08:30:34.847Z,87.69
2023-05-16T08:33:04.949Z,89.20
2023-05-16T08:35:35.315Z,90.49
2023-05-16T08:38:03.094Z,91.75
2023-05-16T08:40:31.406Z,89.77
2023-05-16T08:42:59.031Z,89.44
2023-05-16T08:45:27.139Z,89.25
2023-05-16T08:47:56.764Z,86.39
2023-05-16T08:50:25.296Z,88.32
2023-05-16T08:52:54.391Z,89.23
2023-05-16T08:55:22.756Z,88.50
2023-05-16T08:57:51.854Z,88.13
2023-05-16T09:00:20.063Z,88.29
2023-05-16T09:02:48.347Z,89.60
2023-05-16T09:05:17.116Z,86.94
2023-05-16T09:07:46.115Z,86.29
2023-05-16T09:10:15.056Z,86.28
2023-05-16T09:12:43.637Z,87.45
2023-05-16T09:15:12.212Z,89.66
2023-05-16T09:17:44.159Z,87.25
2023-05-16T09:20:13.646Z,84.95
2023-05-16T09:22:41.849Z,87.52
2023-05-16T09:25:18.419Z,86.79
2023-05-16T09:27:53.907Z,87.64
2023-05-16T09:30:23.969Z,86.29
2023-05-16T09:32:53.313Z,83.79
2023-05-16T09:35:34.993Z,86.39
2023-05-16T09:38:15.763Z,87.09
2023-05-16T09:40:43.965Z,89.54
2023-05-16T09:43:16.186Z,89.22
2023-05-16T09:45:47.635Z,88.21
2023-05-16T09:48:16.934Z,87.42
2023-05-16T09:50:49.867Z,87.23
2023-05-16T09:53:17.456Z,84.55
2023-05-16T09:55:44.891Z,84.30
2023-05-16T09:58:18.269Z,84.78
2023-05-16T10:00:47.028Z,84.57
2023-05-16T10:03:16.295Z,84.20
2023-05-16T10:05:44.042Z,85.08
2023-05-16T10:08:12.321Z,84.54
2023-05-16T10:10:40.739Z,84.20
2023-05-16T10:13:11.543Z,84.91
2023-05-16T10:15:40.834Z,83.25
2023-05-16T10:18:11.906Z,82.06
2023-05-16T10:20:42.434Z,81.28
2023-05-16T10:23:11.321Z,84.00
2023-05-16T10:25:42.481Z,81.75
2023-05-16T10:28:10.291Z,81.79
2023-05-16T10:30:41.762Z,82.14
2023-05-16T10:33:10.343Z,83.37
2023-05-16T10:35:38.132Z,82.30
2023-05-16T10:38:09.518Z,81.29
2023-05-16T10:40:38.792Z,81.95
2023-05-16T10:43:08.213Z,83.71
2023-05-16T10:45:36.275Z,82.43
2023-05-16T10:48:09.718Z,84.67
2023-05-16T10:50:39.482Z,82.54
2023-05-16T10:53:19.673Z,82.06
2023-05-16T10:55:51.886Z,82.07
2023-05-16T10:58:26.193Z,80.55
2023-05-16T11:01:15.890Z,79.89
2023-05-16T11:06:45.505Z,80.05
2023-05-16T11:09:26.492Z,78.31
2023-05-16T11:11:59.789Z,76.77
2023-05-16T11:14:29.799Z,74.91
2023-05-16T11:17:03.432Z,72.93
2023-05-16T11:19:36.378Z,71.27
2023-05-16T11:22:09.455Z,73.18
2023-05-16T11:24:38.141Z,75.79
2023-05-16T11:27:06.828Z,76.63
2023-05-16T11:29:35.742Z,77.23
2023-05-16T11:32:04.843Z,76.39
2023-05-16T11:34:33.308Z,75.47
2023-05-16T11:37:02.110Z,75.87
2023-05-16T11:39:33.580Z,74.58
2023-05-16T11:42:01.163Z,75.95
2023-05-16T11:44:28.603Z,73.70
2023-05-16T11:46:56.526Z,73.70
2023-05-16T11:49:24.245Z,75.68
2023-05-16T11:51:52.749Z,72.92
2023-05-16T11:54:20.762Z,70.31
2023-05-16T11:56:51.338Z,66.69
2023-05-16T11:59:19.444Z,65.79
2023-05-16T12:01:49.056Z,69.83
2023-05-16T12:04:18.031Z,70.50
2023-05-16T12:06:46.028Z,70.65
2023-05-16T12:09:16.129Z,70.10
2023-05-16T12:11:45.546Z,68.87
2023-05-16T12:14:15.105Z,68.23
2023-05-16T12:16:43.923Z,67.17
2023-05-16T12:19:12.300Z,66.21
2023-05-16T12:21:40.075Z,66.97
2023-05-16T12:24:11.106Z,67.32
2023-05-16T12:26:42.759Z,68.47
2023-05-16T12:29:11.576Z,68.00
2023-05-16T12:31:41.746Z,67.56
2023-05-16T12:34:21.285Z,67.59
2023-05-16T12:36:52.768Z,70.17
2023-05-16T12:39:21.087Z,68.60
2023-05-16T12:41:48.464Z,69.37
2023-05-16T12:44:17.841Z,69.99
2023-05-16T12:46:49.567Z,69.17
2023-05-16T12:49:17.177Z,69.31
2023-05-16T12:51:50.227Z,69.39
2023-05-16T12:54:18.228Z,70.27
2023-05-16T12:56:46.113Z,70.97
2023-05-16T12:59:13.781Z,69.50
2023-05-16T13:01:42.019Z,70.87
2023-05-16T13:04:15.371Z,72.58
2023-05-16T13:06:57.313Z,70.80
2023-05-16T13:09:28.917Z,72.21
2023-05-16T13:11:59.623Z,70.49
2023-05-16T13:14:27.157Z,70.94
2023-05-16T13:16:54.603Z,72.84
2023-05-16T13:19:24.154Z,73.15
2023-05-16T13:21:51.724Z,73.08
2023-05-16T13:24:19.158Z,72.16
2023-05-16T13:26:46.573Z,73.84
2023-05-16T13:29:14.768Z,72.41
2023-05-16T13:31:42.434Z,72.92
2023-05-16T13:34:09.915Z,72.46
2023-05-16T13:36:52.939Z,72.30
2023-05-16T13:39:21.912Z,71.32
2023-05-16T13:41:49.597Z,71.33
2023-05-16T13:44:17.221Z,71.50
2023-05-16T13:46:44.870Z,69.20
2023-05-16T13:49:12.347Z,70.58
2023-05-16T13:51:41.264Z,68.37
2023-05-16T13:54:08.820Z,67.07
2023-05-16T13:56:36.274Z,65.59
2023-05-16T13:59:06.895Z,66.44
2023-05-16T14:01:35.191Z,67.36
2023-05-16T14:04:02.804Z,69.03
2023-05-16T14:06:31.155Z,68.60
2023-05-16T14:08:59.941Z,69.24
2023-05-16T14:11:29.079Z,70.71
2023-05-16T14:13:57.545Z,70.77
2023-05-16T14:16:25.862Z,70.92
2023-05-16T14:18:53.400Z,71.31
2023-05-16T14:21:20.846Z,71.57
2023-05-16T14:23:48.655Z,72.45
2023-05-16T14:26:19.090Z,72.58
2023-05-16T14:28:46.556Z,72.34
2023-05-16T14:31:14.001Z,71.25
2023-05-16T14:33:43.106Z,72.31
2023-05-16T14:36:11.021Z,73.37
2023-05-16T14:38:38.466Z,73.60
2023-05-16T14:41:05.976Z,74.55
2023-05-16T14:43:34.731Z,75.00
2023-05-16T14:46:02.530Z,75.44
2023-05-16T14:48:30.014Z,73.71
2023-05-16T14:50:57.686Z,74.25
2023-05-16T14:53:25.131Z,75.07
2023-05-16T14:55:52.636Z,76.92
2023-05-16T14:58:20.066Z,74.11
2023-05-16T15:00:48.819Z,72.92
2023-05-16T15:03:17.768Z,73.37
2023-05-16T15:05:45.818Z,74.34
2023-05-16T15:08:13.354Z,74.49
2023-05-16T15:10:40.823Z,73.50
2023-05-16T15:13:08.362Z,72.79
2023-05-16T15:15:38.538Z,72.29
2023-05-16T15:18:07.408Z,71.91
2023-05-16T15:20:34.855Z,71.97
2023-05-16T15:23:02.339Z,71.88
2023-05-16T15:25:30.270Z,71.18
2023-05-16T15:28:01.079Z,71.45
2023-05-16T15:30:28.528Z,72.19
2023-05-16T15:32:56.284Z,71.12
2023-05-16T15:35:25.100Z,71.71
2023-05-16T15:37:52.948Z,73.82
2023-05-16T15:40:24.567Z,74.04
2023-05-16T15:42:54.348Z,72.63
2023-05-16T15:45:22.067Z,71.99
2023-05-16T15:47:53.095Z,72.24
2023-05-16T15:50:20.739Z,71.13
2023-05-16T15:52:49.509Z,71.44
2023-05-16T15:55:17.131Z,69.47
2023-05-16T15:57:44.698Z,67.50
2023-05-16T16:00:13.297Z,68.63
2023-05-16T16:02:42.338Z,70.54
2023-05-16T16:05:10.211Z,67.45
2023-05-16T16:07:37.697Z,67.07
2023-05-16T16:10:07.830Z,64.98
2023-05-16T16:12:36.968Z,66.21
2023-05-16T16:15:06.477Z,66.52
2023-05-16T16:17:34.161Z,65.95
2023-05-16T16:20:01.685Z,65.24
2023-05-16T16:22:29.208Z,65.92
2023-05-16T16:24:56.640Z,63.70
2023-05-16T16:27:25.451Z,65.28
2023-05-16T16:29:52.911Z,61.70
2023-05-16T16:32:20.356Z,62.86
2023-05-16T16:34:48.296Z,62.70
2023-05-16T16:37:15.787Z,62.85
2023-05-16T16:39:43.248Z,63.00
2023-05-16T16:42:10.786Z,62.65
2023-05-16T16:44:39.549Z,62.10
2023-05-16T16:47:07.295Z,61.75
2023-05-16T16:49:34.792Z,63.35
2023-05-16T16:52:02.693Z,63.16
2023-05-16T16:54:30.173Z,62.44
2023-05-16T16:56:57.627Z,62.16
2023-05-16T16:59:25.068Z,63.79
2023-05-16T17:01:53.918Z,63.61
2023-05-16T17:04:21.390Z,62.96
2023-05-16T17:06:48.978Z,61.38
2023-05-16T17:09:19.503Z,62.40
2023-05-16T17:11:47.459Z,61.11
2023-05-16T17:14:15.128Z,59.86
2023-05-16T17:16:42.867Z,61.25
2023-05-16T17:19:11.904Z,60.86
2023-05-16T17:21:40.512Z,60.55
2023-05-16T17:24:08.631Z,62.17
2023-05-16T17:26:36.592Z,63.24
2023-05-16T17:29:05.135Z,62.34
2023-05-16T17:31:32.689Z,63.70
2023-05-16T17:34:04.050Z,62.01
2023-05-16T17:36:59.124Z,63.45
2023-05-16T17:39:26.636Z,64.21
2023-05-16T17:41:55.251Z,63.85
2023-05-16T17:44:22.669Z,63.77
2023-05-16T17:46:50.284Z,63.00
2023-05-16T17:49:17.759Z,63.18
2023-05-16T17:51:51.119Z,62.62
2023-05-16T17:54:20.213Z,62.31
2023-05-16T17:56:48.623Z,63.71
2023-05-16T17:59:16.759Z,63.79
2023-05-16T18:01:44.693Z,63.20
2023-05-16T18:04:13.129Z,63.50
2023-05-16T18:06:50.987Z,64.63
2023-05-16T18:09:20.658Z,65.59
2023-05-16T18:11:48.205Z,66.52
2023-05-16T18:14:15.690Z,66.99
2023-05-16T18:16:43.777Z,67.24
2023-05-16T18:19:11.737Z,66.43
2023-05-16T18:21:40.030Z,67.02
2023-05-16T18:24:10.734Z,68.59
2023-05-16T18:26:40.108Z,67.58
2023-05-16T18:29:07.881Z,66.81
2023-05-16T18:31:35.485Z,66.85
2023-05-16T18:34:03.589Z,68.18
2023-05-16T18:36:32.193Z,69.63
2023-05-16T18:38:59.796Z,68.92
2023-05-16T18:41:27.381Z,70.16
2023-05-16T18:43:56.417Z,71.25
2023-05-16T18:47:32.699Z,70.38
2023-05-16T18:50:00.204Z,73.77
2023-05-16T18:52:27.641Z,73.16
2023-05-16T18:54:55.077Z,74.57
2023-05-16T18:57:22.610Z,75.69
2023-05-16T18:59:53.980Z,76.77
2023-05-16T19:02:30.208Z,77.42
2023-05-16T19:04:58.960Z,78.90
2023-05-16T19:07:28.661Z,80.05
2023-05-16T19:09:56.108Z,80.74
2023-05-16T19:12:23.567Z,81.24
2023-05-16T19:14:52.344Z,83.91
2023-05-16T19:17:19.784Z,86.00
2023-05-16T19:19:47.341Z,86.53
2023-05-16T19:22:14.774Z,85.77
2023-05-16T19:24:42.343Z,85.45
2023-05-16T19:27:09.806Z,87.42
2023-05-16T19:29:39.832Z,85.89
2023-05-16T19:32:13.025Z,86.66
2023-05-16T19:34:40.668Z,86.62
2023-05-16T19:37:08.799Z,86.95
2023-05-16T19:39:36.265Z,87.49
2023-05-16T19:42:07.482Z,91.06
2023-05-16T19:44:35.407Z,91.31
2023-05-16T19:47:02.836Z,89.74
2023-05-16T19:49:32.573Z,89.75
2023-05-16T19:52:00.041Z,89.81
2023-05-16T19:54:31.000Z,89.53
2023-05-16T19:56:58.426Z,90.70
2023-05-16T19:59:25.914Z,91.01
2023-05-16T20:01:53.702Z,89.47
2023-05-16T20:04:21.266Z,89.58
2023-05-16T20:06:50.141Z,88.00
2023-05-16T20:09:17.573Z,87.54
2023-05-16T20:11:44.997Z,87.34
2023-05-16T20:14:12.412Z,86.83
2023-05-16T20:16:39.843Z,85.96
2023-05-16T20:19:07.688Z,85.20
2023-05-16T20:21:39.002Z,84.12
2023-05-16T20:24:08.095Z,83.36
2023-05-16T20:26:35.557Z,81.44
2023-05-16T20:29:03.652Z,80.78
2023-05-16T20:31:31.192Z,80.52
2023-05-16T20:33:58.630Z,80.43
2023-05-16T20:36:26.153Z,80.24
2023-05-16T20:38:53.618Z,80.13
2023-05-16T20:41:22.361Z,80.73
2023-05-16T20:43:50.547Z,80.41
2023-05-16T20:46:18.137Z,81.25
2023-05-16T20:48:49.031Z,80.16
2023-05-16T20:51:16.944Z,81.07
2023-05-16T20:53:44.374Z,81.79
2023-05-16T20:56:11.774Z,81.45
2023-05-16T20:58:42.212Z,81.12
2023-05-16T21:01:09.866Z,79.46
2023-05-16T21:03:37.370Z,78.68
2023-05-16T21:06:05.241Z,76.79
2023-05-16T21:08:32.750Z,75.71
2023-05-16T21:11:00.363Z,73.28
2023-05-16T21:13:28.770Z,73.95
2023-05-16T21:15:57.538Z,74.41
2023-05-16T21:18:25.093Z,71.83
2023-05-16T21:20:52.551Z,71.72
2023-05-16T21:23:19.973Z,71.43
2023-05-16T21:25:47.383Z,73.04
2023-05-16T21:28:14.799Z,71.75
2023-05-16T21:30:42.251Z,71.74
2023-05-16T21:33:11.504Z,71.21
2023-05-16T21:35:38.958Z,71.18
2023-05-16T21:38:06.440Z,70.12
2023-05-16T21:40:33.855Z,70.55
2023-05-16T21:43:01.255Z,70.09
2023-05-16T21:45:29.323Z,69.56
2023-05-16T21:47:57.030Z,67.78
2023-05-16T21:50:25.894Z,68.03
2023-05-16T21:52:53.334Z,67.57
2023-05-16T21:55:20.778Z,66.57
2023-05-16T21:57:48.261Z,66.76
2023-05-16T22:00:16.863Z,66.18
2023-05-16T22:02:44.613Z,66.87
2023-05-16T22:05:12.285Z,66.99
2023-05-16T22:07:41.401Z,66.89
2023-05-16T22:10:10.688Z,66.23
2023-05-16T22:12:38.456Z,66.34
2023-05-16T22:15:06.958Z,65.75
2023-05-16T22:17:34.445Z,66.33
2023-05-16T22:20:02.390Z,66.68
2023-05-16T22:22:30.237Z,66.85
2023-05-16T22:24:58.971Z,66.78
2023-05-16T22:27:26.444Z,66.15
2023-05-16T22:29:53.877Z,66.89
2023-05-16T22:32:22.237Z,66.68
2023-05-16T22:34:49.635Z,67.08
2023-05-16T22:37:17.049Z,66.22
2023-05-16T22:39:44.508Z,65.79
2023-05-16T22:42:13.278Z,65.97
2023-05-16T22:44:40.769Z,65.88
2023-05-16T22:47:08.209Z,65.83
2023-05-16T22:49:35.690Z,65.99
2023-05-16T22:52:03.370Z,65.96
2023-05-16T22:54:30.795Z,65.58
2023-05-16T22:56:58.193Z,65.78
2023-05-16T22:59:26.948Z,65.99
2023-05-16T23:01:54.382Z,65.55
2023-05-16T23:04:21.902Z,64.87
2023-05-16T23:06:49.579Z,65.27
2023-05-16T23:09:17.054Z,65.64
2023-05-16T23:11:44.457Z,65.79
2023-05-16T23:14:11.930Z,67.39
2023-05-16T23:16:40.650Z,67.01
2023-05-16T23:19:09.674Z,67.96
2023-05-16T23:21:37.514Z,67.83
2023-05-16T23:24:05.169Z,67.00
2023-05-16T23:26:32.700Z,67.96
2023-05-16T23:29:00.148Z,68.32
2023-05-16T23:31:27.726Z,68.88
2023-05-16T23:33:56.578Z,68.76
2023-05-16T23:36:24.056Z,68.84
2023-05-16T23:38:51.637Z,69.39
2023-05-16T23:41:19.109Z,68.20
2023-05-16T23:43:46.537Z,70.07
2023-05-16T23:46:13.935Z,70.21
2023-05-16T23:48:41.436Z,70.91
2023-05-16T23:51:10.425Z,71.28
2023-05-16T23:53:37.848Z,71.48
2023-05-16T23:56:05.707Z,71.55
2023-05-16T23:58:33.128Z,72.40
